sensor_id;sensor_type;location;lat;lon;timestamp;P1;durP1;ratioP1;P2;durP2;ratioP2
22851;SDS011;11592;45.460;9.240;2023-04-24T00:01:04;8.77;;;5.60;;
22851;SDS011;11592;45.460;9.240;2023-04-24T00:03:34;8.77;;;5.53;;
22851;SDS011;11592;45.460;9.240;2023-04-24T00:06:01;11.30;;;4.97;;
22851;SDS011;11592;45.460;9.240;2023-04-24T00:08:28;11.00;;;5.30;;
22851;SDS011;11592;45.460;9.240;2023-04-24T00:10:55;6.85;;;5.18;;
22851;SDS011;11592;45.460;9.240;2023-04-24T00:13:22;10.98;;;5.40;;
22851;SDS011;11592;45.460;9.240;2023-04-24T00:15:49;7.22;;;5.28;;
22851;SDS011;11592;45.460;9.240;2023-04-24T00:18:16;7.47;;;5.22;;
22851;SDS011;11592;45.460;9.240;2023-04-24T00:20:43;8.43;;;4.65;;
22851;SDS011;11592;45.460;9.240;2023-04-24T00:23:10;8.02;;;5.25;;
22851;SDS011;11592;45.460;9.240;2023-04-24T00:25:37;9.00;;;5.50;;
22851;SDS011;11592;45.460;9.240;2023-04-24T00:28:04;6.25;;;5.20;;
22851;SDS011;11592;45.460;9.240;2023-04-24T00:30:30;8.13;;;5.53;;
22851;SDS011;11592;45.460;9.240;2023-04-24T00:32:58;10.02;;;5.50;;
22851;SDS011;11592;45.460;9.240;2023-04-24T00:35:25;6.65;;;5.40;;
22851;SDS011;11592;45.460;9.240;2023-04-24T00:37:51;8.23;;;4.75;;
22851;SDS011;11592;45.460;9.240;2023-04-24T00:40:18;10.70;;;5.53;;
22851;SDS011;11592;45.460;9.240;2023-04-24T00:42:45;8.45;;;4.85;;
22851;SDS011;11592;45.460;9.240;2023-04-24T00:45:11;8.32;;;5.38;;
22851;SDS011;11592;45.460;9.240;2023-04-24T00:47:39;7.03;;;5.20;;
22851;SDS011;11592;45.460;9.240;2023-04-24T00:50:08;9.20;;;5.60;;
22851;SDS011;11592;45.460;9.240;2023-04-24T00:52:35;10.55;;;5.68;;
22851;SDS011;11592;45.460;9.240;2023-04-24T00:55:03;9.18;;;6.25;;
22851;SDS011;11592;45.460;9.240;2023-04-24T00:57:31;10.68;;;5.82;;
22851;SDS011;11592;45.460;9.240;2023-04-24T00:59:58;9.10;;;5.53;;
22851;SDS011;11592;45.460;9.240;2023-04-24T01:02:25;9.63;;;5.75;;
22851;SDS011;11592;45.460;9.240;2023-04-24T01:04:52;7.78;;;5.70;;
22851;SDS011;11592;45.460;9.240;2023-04-24T01:07:19;10.48;;;5.50;;
22851;SDS011;11592;45.460;9.240;2023-04-24T01:09:47;8.32;;;5.22;;
22851;SDS011;11592;45.460;9.240;2023-04-24T01:12:17;9.25;;;5.28;;
22851;SDS011;11592;45.460;9.240;2023-04-24T01:14:45;8.75;;;5.30;;
22851;SDS011;11592;45.460;9.240;2023-04-24T01:17:12;6.70;;;4.97;;
22851;SDS011;11592;45.460;9.240;2023-04-24T01:19:39;9.27;;;5.30;;
22851;SDS011;11592;45.460;9.240;2023-04-24T01:22:10;6.32;;;5.07;;
22851;SDS011;11592;45.460;9.240;2023-04-24T01:24:39;9.82;;;5.55;;
22851;SDS011;11592;45.460;9.240;2023-04-24T01:27:07;8.82;;;5.05;;
22851;SDS011;11592;45.460;9.240;2023-04-24T01:29:35;11.65;;;6.10;;
22851;SDS011;11592;45.460;9.240;2023-04-24T01:32:03;8.85;;;5.25;;
22851;SDS011;11592;45.460;9.240;2023-04-24T01:34:30;7.95;;;5.40;;
22851;SDS011;11592;45.460;9.240;2023-04-24T01:36:58;6.82;;;5.15;;
22851;SDS011;11592;45.460;9.240;2023-04-24T01:39:25;8.43;;;5.28;;
22851;SDS011;11592;45.460;9.240;2023-04-24T01:41:54;13.05;;;6.53;;
22851;SDS011;11592;45.460;9.240;2023-04-24T01:44:22;10.27;;;5.93;;
22851;SDS011;11592;45.460;9.240;2023-04-24T01:46:49;13.40;;;6.30;;
22851;SDS011;11592;45.460;9.240;2023-04-24T01:49:17;12.35;;;7.13;;
22851;SDS011;11592;45.460;9.240;2023-04-24T01:51:44;11.73;;;7.38;;
22851;SDS011;11592;45.460;9.240;2023-04-24T01:54:11;12.23;;;7.15;;
22851;SDS011;11592;45.460;9.240;2023-04-24T01:56:41;12.32;;;7.30;;
22851;SDS011;11592;45.460;9.240;2023-04-24T01:59:10;11.27;;;6.82;;
22851;SDS011;11592;45.460;9.240;2023-04-24T02:01:38;11.65;;;6.97;;
22851;SDS011;11592;45.460;9.240;2023-04-24T02:04:05;9.68;;;6.90;;
22851;SDS011;11592;45.460;9.240;2023-04-24T02:06:34;10.05;;;6.57;;
22851;SDS011;11592;45.460;9.240;2023-04-24T02:09:01;11.82;;;7.55;;
22851;SDS011;11592;45.460;9.240;2023-04-24T02:11:29;10.45;;;6.63;;
22851;SDS011;11592;45.460;9.240;2023-04-24T02:13:56;9.80;;;6.78;;
22851;SDS011;11592;45.460;9.240;2023-04-24T02:16:23;11.63;;;6.72;;
22851;SDS011;11592;45.460;9.240;2023-04-24T02:18:51;13.23;;;7.10;;
22851;SDS011;11592;45.460;9.240;2023-04-24T02:21:17;10.55;;;7.15;;
22851;SDS011;11592;45.460;9.240;2023-04-24T02:23:44;11.15;;;6.53;;
22851;SDS011;11592;45.460;9.240;2023-04-24T02:26:11;9.30;;;7.03;;
22851;SDS011;11592;45.460;9.240;2023-04-24T02:28:38;13.00;;;6.90;;
22851;SDS011;11592;45.460;9.240;2023-04-24T02:31:05;9.35;;;6.53;;
22851;SDS011;11592;45.460;9.240;2023-04-24T02:33:32;9.40;;;6.80;;
22851;SDS011;11592;45.460;9.240;2023-04-24T02:35:59;9.55;;;6.50;;
22851;SDS011;11592;45.460;9.240;2023-04-24T02:38:26;9.85;;;6.90;;
22851;SDS011;11592;45.460;9.240;2023-04-24T02:40:53;11.32;;;6.35;;
22851;SDS011;11592;45.460;9.240;2023-04-24T02:43:19;11.00;;;7.28;;
22851;SDS011;11592;45.460;9.240;2023-04-24T02:45:47;9.73;;;7.70;;
22851;SDS011;11592;45.460;9.240;2023-04-24T02:48:14;10.13;;;7.05;;
22851;SDS011;11592;45.460;9.240;2023-04-24T02:50:41;13.13;;;7.63;;
22851;SDS011;11592;45.460;9.240;2023-04-24T02:53:07;10.80;;;7.75;;
22851;SDS011;11592;45.460;9.240;2023-04-24T02:55:34;10.77;;;7.47;;
22851;SDS011;11592;45.460;9.240;2023-04-24T02:58:02;10.90;;;7.30;;
22851;SDS011;11592;45.460;9.240;2023-04-24T03:00:29;10.85;;;6.72;;
22851;SDS011;11592;45.460;9.240;2023-04-24T03:02:56;13.25;;;7.45;;
22851;SDS011;11592;45.460;9.240;2023-04-24T03:05:23;9.90;;;7.32;;
22851;SDS011;11592;45.460;9.240;2023-04-24T03:07:50;12.38;;;7.35;;
22851;SDS011;11592;45.460;9.240;2023-04-24T03:10:18;10.55;;;7.45;;
22851;SDS011;11592;45.460;9.240;2023-04-24T03:12:45;10.18;;;7.63;;
22851;SDS011;11592;45.460;9.240;2023-04-24T03:15:12;11.57;;;7.75;;
22851;SDS011;11592;45.460;9.240;2023-04-24T03:17:39;11.40;;;8.63;;
22851;SDS011;11592;45.460;9.240;2023-04-24T03:20:06;12.52;;;8.50;;
22851;SDS011;11592;45.460;9.240;2023-04-24T03:22:35;12.20;;;8.25;;
22851;SDS011;11592;45.460;9.240;2023-04-24T03:25:02;11.65;;;7.80;;
22851;SDS011;11592;45.460;9.240;2023-04-24T03:27:29;12.85;;;7.40;;
22851;SDS011;11592;45.460;9.240;2023-04-24T03:29:56;12.10;;;7.93;;
22851;SDS011;11592;45.460;9.240;2023-04-24T03:32:23;10.80;;;7.57;;
22851;SDS011;11592;45.460;9.240;2023-04-24T03:34:50;11.32;;;7.63;;
22851;SDS011;11592;45.460;9.240;2023-04-24T03:37:17;9.68;;;7.22;;
22851;SDS011;11592;45.460;9.240;2023-04-24T03:39:43;11.40;;;7.32;;
22851;SDS011;11592;45.460;9.240;2023-04-24T03:42:10;9.48;;;6.57;;
22851;SDS011;11592;45.460;9.240;2023-04-24T03:44:37;10.50;;;6.70;;
22851;SDS011;11592;45.460;9.240;2023-04-24T03:47:04;10.77;;;6.82;;
22851;SDS011;11592;45.460;9.240;2023-04-24T03:49:31;8.88;;;6.40;;
22851;SDS011;11592;45.460;9.240;2023-04-24T03:51:57;11.50;;;6.70;;
22851;SDS011;11592;45.460;9.240;2023-04-24T03:54:25;10.35;;;6.22;;
22851;SDS011;11592;45.460;9.240;2023-04-24T03:56:52;9.25;;;6.03;;
22851;SDS011;11592;45.460;9.240;2023-04-24T03:59:19;9.93;;;5.90;;
22851;SDS011;11592;45.460;9.240;2023-04-24T04:01:46;9.10;;;5.70;;
22851;SDS011;11592;45.460;9.240;2023-04-24T04:04:13;10.23;;;6.45;;
22851;SDS011;11592;45.460;9.240;2023-04-24T04:06:40;9.02;;;5.68;;
22851;SDS011;11592;45.460;9.240;2023-04-24T04:09:06;8.98;;;5.70;;
22851;SDS011;11592;45.460;9.240;2023-04-24T04:11:34;7.10;;;5.22;;
22851;SDS011;11592;45.460;9.240;2023-04-24T04:14:01;9.63;;;4.88;;
22851;SDS011;11592;45.460;9.240;2023-04-24T04:16:28;6.45;;;4.65;;
22851;SDS011;11592;45.460;9.240;2023-04-24T04:18:56;6.53;;;5.18;;
22851;SDS011;11592;45.460;9.240;2023-04-24T04:21:23;8.98;;;5.10;;
22851;SDS011;11592;45.460;9.240;2023-04-24T04:23:50;8.35;;;4.95;;
22851;SDS011;11592;45.460;9.240;2023-04-24T04:26:16;6.60;;;4.85;;
22851;SDS011;11592;45.460;9.240;2023-04-24T04:28:45;9.00;;;5.22;;
22851;SDS011;11592;45.460;9.240;2023-04-24T04:31:13;6.55;;;5.18;;
22851;SDS011;11592;45.460;9.240;2023-04-24T04:33:40;7.55;;;5.53;;
22851;SDS011;11592;45.460;9.240;2023-04-24T04:36:07;7.93;;;5.38;;
22851;SDS011;11592;45.460;9.240;2023-04-24T04:38:34;7.93;;;4.90;;
22851;SDS011;11592;45.460;9.240;2023-04-24T04:41:01;7.28;;;6.00;;
22851;SDS011;11592;45.460;9.240;2023-04-24T04:43:29;7.22;;;5.43;;
22851;SDS011;11592;45.460;9.240;2023-04-24T04:45:57;7.80;;;5.15;;
22851;SDS011;11592;45.460;9.240;2023-04-24T04:48:24;8.48;;;5.97;;
22851;SDS011;11592;45.460;9.240;2023-04-24T04:50:51;10.40;;;5.85;;
22851;SDS011;11592;45.460;9.240;2023-04-24T04:53:17;8.52;;;5.80;;
22851;SDS011;11592;45.460;9.240;2023-04-24T04:55:44;9.93;;;6.45;;
22851;SDS011;11592;45.460;9.240;2023-04-24T04:58:12;9.20;;;5.55;;
22851;SDS011;11592;45.460;9.240;2023-04-24T05:00:39;7.47;;;5.60;;
22851;SDS011;11592;45.460;9.240;2023-04-24T05:03:06;7.20;;;5.53;;
22851;SDS011;11592;45.460;9.240;2023-04-24T05:05:46;7.93;;;5.35;;
22851;SDS011;11592;45.460;9.240;2023-04-24T05:08:13;7.60;;;5.38;;
22851;SDS011;11592;45.460;9.240;2023-04-24T05:10:43;7.55;;;5.38;;
22851;SDS011;11592;45.460;9.240;2023-04-24T05:13:10;11.38;;;5.20;;
22851;SDS011;11592;45.460;9.240;2023-04-24T05:15:39;8.13;;;5.35;;
22851;SDS011;11592;45.460;9.240;2023-04-24T05:18:06;8.05;;;5.65;;
22851;SDS011;11592;45.460;9.240;2023-04-24T05:20:33;8.07;;;6.13;;
22851;SDS011;11592;45.460;9.240;2023-04-24T05:22:59;10.00;;;5.13;;
22851;SDS011;11592;45.460;9.240;2023-04-24T05:25:26;8.30;;;4.78;;
22851;SDS011;11592;45.460;9.240;2023-04-24T05:27:53;7.75;;;4.63;;
22851;SDS011;11592;45.460;9.240;2023-04-24T05:30:20;6.90;;;5.50;;
22851;SDS011;11592;45.460;9.240;2023-04-24T05:32:47;7.13;;;5.07;;
22851;SDS011;11592;45.460;9.240;2023-04-24T05:35:14;7.50;;;5.30;;
22851;SDS011;11592;45.460;9.240;2023-04-24T05:37:40;6.30;;;4.60;;
22851;SDS011;11592;45.460;9.240;2023-04-24T05:40:08;8.23;;;5.90;;
22851;SDS011;11592;45.460;9.240;2023-04-24T05:42:35;7.47;;;4.90;;
22851;SDS011;11592;45.460;9.240;2023-04-24T05:45:02;8.35;;;4.68;;
22851;SDS011;11592;45.460;9.240;2023-04-24T05:47:29;11.90;;;5.85;;
22851;SDS011;11592;45.460;9.240;2023-04-24T05:49:56;6.15;;;4.70;;
22851;SDS011;11592;45.460;9.240;2023-04-24T05:52:23;9.95;;;4.07;;
22851;SDS011;11592;45.460;9.240;2023-04-24T05:54:50;6.63;;;4.40;;
22851;SDS011;11592;45.460;9.240;2023-04-24T05:57:16;9.18;;;4.55;;
22851;SDS011;11592;45.460;9.240;2023-04-24T05:59:43;5.70;;;4.00;;
22851;SDS011;11592;45.460;9.240;2023-04-24T06:02:10;5.75;;;3.53;;
22851;SDS011;11592;45.460;9.240;2023-04-24T06:04:37;5.18;;;3.92;;
22851;SDS011;11592;45.460;9.240;2023-04-24T06:07:04;8.63;;;3.95;;
22851;SDS011;11592;45.460;9.240;2023-04-24T06:09:31;7.40;;;3.58;;
22851;SDS011;11592;45.460;9.240;2023-04-24T06:11:58;5.00;;;3.63;;
22851;SDS011;11592;45.460;9.240;2023-04-24T06:14:26;5.60;;;3.22;;
22851;SDS011;11592;45.460;9.240;2023-04-24T06:16:52;4.68;;;2.90;;
22851;SDS011;11592;45.460;9.240;2023-04-24T06:19:20;3.42;;;2.60;;
22851;SDS011;11592;45.460;9.240;2023-04-24T06:21:46;3.53;;;2.50;;
22851;SDS011;11592;45.460;9.240;2023-04-24T06:24:13;3.88;;;2.28;;
22851;SDS011;11592;45.460;9.240;2023-04-24T06:26:42;4.80;;;2.65;;
22851;SDS011;11592;45.460;9.240;2023-04-24T06:29:09;3.50;;;2.15;;
22851;SDS011;11592;45.460;9.240;2023-04-24T06:31:35;5.97;;;2.53;;
22851;SDS011;11592;45.460;9.240;2023-04-24T06:34:03;5.43;;;2.90;;
22851;SDS011;11592;45.460;9.240;2023-04-24T06:36:30;3.08;;;2.53;;
22851;SDS011;11592;45.460;9.240;2023-04-24T06:38:57;4.93;;;2.35;;
22851;SDS011;11592;45.460;9.240;2023-04-24T06:41:24;5.47;;;2.88;;
22851;SDS011;11592;45.460;9.240;2023-04-24T06:43:51;5.47;;;3.15;;
22851;SDS011;11592;45.460;9.240;2023-04-24T06:46:18;4.22;;;3.03;;
22851;SDS011;11592;45.460;9.240;2023-04-24T06:48:44;4.75;;;3.08;;
22851;SDS011;11592;45.460;9.240;2023-04-24T06:51:11;3.72;;;2.95;;
22851;SDS011;11592;45.460;9.240;2023-04-24T06:53:38;3.45;;;2.80;;
22851;SDS011;11592;45.460;9.240;2023-04-24T06:56:05;5.50;;;3.13;;
22851;SDS011;11592;45.460;9.240;2023-04-24T06:58:31;5.72;;;3.22;;
22851;SDS011;11592;45.460;9.240;2023-04-24T07:00:58;6.53;;;3.22;;
22851;SDS011;11592;45.460;9.240;2023-04-24T07:03:25;4.78;;;2.63;;
22851;SDS011;11592;45.460;9.240;2023-04-24T07:05:52;5.35;;;2.85;;
22851;SDS011;11592;45.460;9.240;2023-04-24T07:08:20;3.45;;;2.50;;
22851;SDS011;11592;45.460;9.240;2023-04-24T07:10:48;4.95;;;2.20;;
22851;SDS011;11592;45.460;9.240;2023-04-24T07:13:16;3.00;;;1.83;;
22851;SDS011;11592;45.460;9.240;2023-04-24T07:15:43;3.92;;;2.35;;
22851;SDS011;11592;45.460;9.240;2023-04-24T07:18:10;3.63;;;2.13;;
22851;SDS011;11592;45.460;9.240;2023-04-24T07:20:37;6.13;;;2.17;;
22851;SDS011;11592;45.460;9.240;2023-04-24T07:23:04;9.00;;;2.30;;
22851;SDS011;11592;45.460;9.240;2023-04-24T07:25:31;4.90;;;2.10;;
22851;SDS011;11592;45.460;9.240;2023-04-24T07:27:57;3.63;;;2.53;;
22851;SDS011;11592;45.460;9.240;2023-04-24T07:30:25;6.20;;;2.65;;
22851;SDS011;11592;45.460;9.240;2023-04-24T07:32:52;4.57;;;2.53;;
22851;SDS011;11592;45.460;9.240;2023-04-24T07:35:18;8.75;;;2.65;;
22851;SDS011;11592;45.460;9.240;2023-04-24T07:37:46;7.82;;;2.47;;
22851;SDS011;11592;45.460;9.240;2023-04-24T07:40:13;4.78;;;2.38;;
22851;SDS011;11592;45.460;9.240;2023-04-24T07:42:40;8.98;;;3.28;;
22851;SDS011;11592;45.460;9.240;2023-04-24T07:45:07;6.30;;;2.88;;
22851;SDS011;11592;45.460;9.240;2023-04-24T07:47:34;6.00;;;3.22;;
22851;SDS011;11592;45.460;9.240;2023-04-24T07:50:02;5.53;;;3.03;;
22851;SDS011;11592;45.460;9.240;2023-04-24T07:52:29;5.05;;;2.85;;
22851;SDS011;11592;45.460;9.240;2023-04-24T07:54:56;4.22;;;2.60;;
22851;SDS011;11592;45.460;9.240;2023-04-24T07:57:24;6.03;;;3.10;;
22851;SDS011;11592;45.460;9.240;2023-04-24T07:59:52;6.38;;;3.17;;
22851;SDS011;11592;45.460;9.240;2023-04-24T08:02:18;5.43;;;3.25;;
22851;SDS011;11592;45.460;9.240;2023-04-24T08:04:46;9.18;;;3.40;;
22851;SDS011;11592;45.460;9.240;2023-04-24T08:07:13;5.82;;;3.30;;
22851;SDS011;11592;45.460;9.240;2023-04-24T08:09:40;8.98;;;3.53;;
22851;SDS011;11592;45.460;9.240;2023-04-24T08:12:07;6.55;;;3.97;;
22851;SDS011;11592;45.460;9.240;2023-04-24T08:14:34;5.63;;;3.80;;
22851;SDS011;11592;45.460;9.240;2023-04-24T08:17:01;5.88;;;3.47;;
22851;SDS011;11592;45.460;9.240;2023-04-24T08:19:29;8.05;;;4.18;;
22851;SDS011;11592;45.460;9.240;2023-04-24T08:21:56;6.35;;;4.03;;
22851;SDS011;11592;45.460;9.240;2023-04-24T08:24:23;10.23;;;4.50;;
22851;SDS011;11592;45.460;9.240;2023-04-24T08:26:50;6.60;;;4.60;;
22851;SDS011;11592;45.460;9.240;2023-04-24T08:29:17;7.13;;;3.70;;
22851;SDS011;11592;45.460;9.240;2023-04-24T08:31:44;7.55;;;3.03;;
22851;SDS011;11592;45.460;9.240;2023-04-24T08:34:11;5.70;;;2.90;;
22851;SDS011;11592;45.460;9.240;2023-04-24T08:36:38;6.57;;;2.47;;
22851;SDS011;11592;45.460;9.240;2023-04-24T08:39:12;4.45;;;2.72;;
22851;SDS011;11592;45.460;9.240;2023-04-24T08:41:41;3.65;;;3.15;;
22851;SDS011;11592;45.460;9.240;2023-04-24T08:44:12;4.18;;;3.05;;
22851;SDS011;11592;45.460;9.240;2023-04-24T08:46:45;6.53;;;2.92;;
22851;SDS011;11592;45.460;9.240;2023-04-24T08:49:14;4.68;;;2.90;;
22851;SDS011;11592;45.460;9.240;2023-04-24T08:51:44;3.30;;;2.80;;
22851;SDS011;11592;45.460;9.240;2023-04-24T08:54:13;4.22;;;2.63;;
22851;SDS011;11592;45.460;9.240;2023-04-24T08:56:40;3.58;;;2.58;;
22851;SDS011;11592;45.460;9.240;2023-04-24T08:59:11;6.20;;;3.83;;
22851;SDS011;11592;45.460;9.240;2023-04-24T09:01:38;5.72;;;3.60;;
22851;SDS011;11592;45.460;9.240;2023-04-24T09:04:07;4.70;;;3.10;;
22851;SDS011;11592;45.460;9.240;2023-04-24T09:06:40;4.43;;;2.55;;
22851;SDS011;11592;45.460;9.240;2023-04-24T09:09:07;6.00;;;1.98;;
22851;SDS011;11592;45.460;9.240;2023-04-24T09:11:36;3.90;;;2.70;;
22851;SDS011;11592;45.460;9.240;2023-04-24T09:14:03;7.07;;;2.97;;
22851;SDS011;11592;45.460;9.240;2023-04-24T09:16:30;3.75;;;2.80;;
22851;SDS011;11592;45.460;9.240;2023-04-24T09:19:02;5.82;;;3.38;;
22851;SDS011;11592;45.460;9.240;2023-04-24T09:21:32;7.03;;;3.20;;
22851;SDS011;11592;45.460;9.240;2023-04-24T09:24:04;4.72;;;2.80;;
22851;SDS011;11592;45.460;9.240;2023-04-24T09:26:34;3.90;;;2.97;;
22851;SDS011;11592;45.460;9.240;2023-04-24T09:29:03;2.92;;;2.35;;
22851;SDS011;11592;45.460;9.240;2023-04-24T09:31:31;6.05;;;2.30;;
22851;SDS011;11592;45.460;9.240;2023-04-24T09:39:06;3.33;;;1.80;;
22851;SDS011;11592;45.460;9.240;2023-04-24T09:41:50;3.37;;;2.20;;
22851;SDS011;11592;45.460;9.240;2023-04-24T09:44:22;5.95;;;2.70;;
22851;SDS011;11592;45.460;9.240;2023-04-24T09:46:55;3.38;;;2.20;;
22851;SDS011;11592;45.460;9.240;2023-04-24T09:49:23;3.40;;;2.38;;
22851;SDS011;11592;45.460;9.240;2023-04-24T09:51:51;5.63;;;2.40;;
22851;SDS011;11592;45.460;9.240;2023-04-24T09:54:19;7.57;;;2.13;;
22851;SDS011;11592;45.460;9.240;2023-04-24T09:56:48;5.00;;;2.10;;
22851;SDS011;11592;45.460;9.240;2023-04-24T09:59:17;4.95;;;2.38;;
22851;SDS011;11592;45.460;9.240;2023-04-24T10:01:45;7.07;;;2.20;;
22851;SDS011;11592;45.460;9.240;2023-04-24T10:04:18;3.60;;;2.63;;
22851;SDS011;11592;45.460;9.240;2023-04-24T10:06:47;3.50;;;2.65;;
22851;SDS011;11592;45.460;9.240;2023-04-24T10:09:15;5.68;;;3.00;;
22851;SDS011;11592;45.460;9.240;2023-04-24T10:11:44;3.50;;;2.47;;
22851;SDS011;11592;45.460;9.240;2023-04-24T10:14:13;5.45;;;3.30;;
22851;SDS011;11592;45.460;9.240;2023-04-24T10:16:45;3.78;;;2.70;;
22851;SDS011;11592;45.460;9.240;2023-04-24T10:19:13;5.10;;;2.78;;
22851;SDS011;11592;45.460;9.240;2023-04-24T10:21:42;4.35;;;2.90;;
22851;SDS011;11592;45.460;9.240;2023-04-24T10:24:16;4.43;;;3.03;;
22851;SDS011;11592;45.460;9.240;2023-04-24T10:26:45;5.97;;;2.90;;
22851;SDS011;11592;45.460;9.240;2023-04-24T10:29:17;6.03;;;2.80;;
22851;SDS011;11592;45.460;9.240;2023-04-24T10:31:45;3.20;;;2.28;;
22851;SDS011;11592;45.460;9.240;2023-04-24T10:34:14;3.13;;;2.17;;
22851;SDS011;11592;45.460;9.240;2023-04-24T10:36:43;4.30;;;1.60;;
22851;SDS011;11592;45.460;9.240;2023-04-24T10:39:14;2.63;;;1.80;;
22851;SDS011;11592;45.460;9.240;2023-04-24T10:41:42;1.95;;;1.50;;
22851;SDS011;11592;45.460;9.240;2023-04-24T10:44:09;1.95;;;1.55;;
22851;SDS011;11592;45.460;9.240;2023-04-24T10:46:38;2.08;;;1.40;;
22851;SDS011;11592;45.460;9.240;2023-04-24T10:49:08;2.38;;;1.17;;
22851;SDS011;11592;45.460;9.240;2023-04-24T10:51:48;1.10;;;1.00;;
22851;SDS011;11592;45.460;9.240;2023-04-24T10:54:24;2.90;;;1.20;;
22851;SDS011;11592;45.460;9.240;2023-04-24T10:56:52;1.63;;;1.20;;
22851;SDS011;11592;45.460;9.240;2023-04-24T10:59:34;1.45;;;1.00;;
22851;SDS011;11592;45.460;9.240;2023-04-24T11:02:01;1.85;;;1.10;;
22851;SDS011;11592;45.460;9.240;2023-04-24T11:04:29;2.28;;;1.23;;
22851;SDS011;11592;45.460;9.240;2023-04-24T11:06:57;2.25;;;0.90;;
22851;SDS011;11592;45.460;9.240;2023-04-24T11:09:27;1.35;;;0.75;;
22851;SDS011;11592;45.460;9.240;2023-04-24T11:12:04;1.05;;;0.80;;
22851;SDS011;11592;45.460;9.240;2023-04-24T11:17:33;2.30;;;0.90;;
22851;SDS011;11592;45.460;9.240;2023-04-24T11:20:05;1.63;;;0.98;;
22851;SDS011;11592;45.460;9.240;2023-04-24T11:22:53;0.90;;;0.70;;
22851;SDS011;11592;45.460;9.240;2023-04-24T11:25:21;1.45;;;1.00;;
22851;SDS011;11592;45.460;9.240;2023-04-24T11:27:49;1.75;;;1.10;;
22851;SDS011;11592;45.460;9.240;2023-04-24T11:30:17;1.67;;;0.77;;
22851;SDS011;11592;45.460;9.240;2023-04-24T11:32:49;2.05;;;0.98;;
22851;SDS011;11592;45.460;9.240;2023-04-24T11:35:18;1.58;;;1.00;;
22851;SDS011;11592;45.460;9.240;2023-04-24T11:37:52;1.27;;;1.10;;
22851;SDS011;11592;45.460;9.240;2023-04-24T11:40:39;1.85;;;1.20;;
22851;SDS011;11592;45.460;9.240;2023-04-24T11:43:07;1.50;;;1.20;;
22851;SDS011;11592;45.460;9.240;2023-04-24T11:45:35;1.77;;;1.25;;
22851;SDS011;11592;45.460;9.240;2023-04-24T11:48:02;1.05;;;0.90;;
22851;SDS011;11592;45.460;9.240;2023-04-24T11:50:30;3.35;;;1.10;;
22851;SDS011;11592;45.460;9.240;2023-04-24T11:52:56;2.38;;;1.10;;
22851;SDS011;11592;45.460;9.240;2023-04-24T11:55:24;1.65;;;1.00;;
22851;SDS011;11592;45.460;9.240;2023-04-24T11:57:54;1.77;;;1.20;;
22851;SDS011;11592;45.460;9.240;2023-04-24T12:00:29;1.42;;;0.90;;
22851;SDS011;11592;45.460;9.240;2023-04-24T12:03:04;2.10;;;1.15;;
22851;SDS011;11592;45.460;9.240;2023-04-24T12:05:36;1.30;;;1.10;;
22851;SDS011;11592;45.460;9.240;2023-04-24T12:08:03;9.30;;;1.40;;
22851;SDS011;11592;45.460;9.240;2023-04-24T12:10:31;2.30;;;1.58;;
22851;SDS011;11592;45.460;9.240;2023-04-24T12:12:59;4.53;;;1.50;;
22851;SDS011;11592;45.460;9.240;2023-04-24T12:15:26;4.07;;;2.63;;
22851;SDS011;11592;45.460;9.240;2023-04-24T12:17:54;6.07;;;1.00;;
22851;SDS011;11592;45.460;9.240;2023-04-24T12:20:26;2.22;;;0.90;;
22851;SDS011;11592;45.460;9.240;2023-04-24T12:22:56;1.25;;;0.80;;
22851;SDS011;11592;45.460;9.240;2023-04-24T12:25:24;1.60;;;1.00;;
22851;SDS011;11592;45.460;9.240;2023-04-24T12:27:53;3.08;;;0.90;;
22851;SDS011;11592;45.460;9.240;2023-04-24T12:30:25;2.65;;;0.80;;
22851;SDS011;11592;45.460;9.240;2023-04-24T12:32:56;2.95;;;1.20;;
22851;SDS011;11592;45.460;9.240;2023-04-24T12:35:25;3.75;;;0.98;;
22851;SDS011;11592;45.460;9.240;2023-04-24T12:37:55;1.50;;;0.85;;
22851;SDS011;11592;45.460;9.240;2023-04-24T12:40:31;1.98;;;0.90;;
22851;SDS011;11592;45.460;9.240;2023-04-24T12:42:58;0.88;;;0.80;;
22851;SDS011;11592;45.460;9.240;2023-04-24T12:45:24;1.95;;;0.80;;
22851;SDS011;11592;45.460;9.240;2023-04-24T12:47:53;2.05;;;1.02;;
22851;SDS011;11592;45.460;9.240;2023-04-24T12:50:21;1.50;;;0.60;;
22851;SDS011;11592;45.460;9.240;2023-04-24T12:52:47;1.23;;;0.70;;
22851;SDS011;11592;45.460;9.240;2023-04-24T12:55:14;1.17;;;0.63;;
22851;SDS011;11592;45.460;9.240;2023-04-24T12:57:41;3.35;;;0.63;;
22851;SDS011;11592;45.460;9.240;2023-04-24T13:00:08;2.08;;;0.95;;
22851;SDS011;11592;45.460;9.240;2023-04-24T13:02:36;1.55;;;0.70;;
22851;SDS011;11592;45.460;9.240;2023-04-24T13:05:03;2.47;;;0.95;;
22851;SDS011;11592;45.460;9.240;2023-04-24T13:07:30;2.10;;;0.60;;
22851;SDS011;11592;45.460;9.240;2023-04-24T13:09:57;5.25;;;0.90;;
22851;SDS011;11592;45.460;9.240;2023-04-24T13:12:24;1.80;;;0.98;;
22851;SDS011;11592;45.460;9.240;2023-04-24T13:14:52;1.75;;;0.60;;
22851;SDS011;11592;45.460;9.240;2023-04-24T13:17:19;0.65;;;0.50;;
22851;SDS011;11592;45.460;9.240;2023-04-24T13:19:49;0.70;;;0.68;;
22851;SDS011;11592;45.460;9.240;2023-04-24T13:22:17;2.35;;;0.70;;
22851;SDS011;11592;45.460;9.240;2023-04-24T13:24:47;4.90;;;0.60;;
22851;SDS011;11592;45.460;9.240;2023-04-24T13:27:15;3.15;;;2.05;;
22851;SDS011;11592;45.460;9.240;2023-04-24T13:29:42;5.97;;;2.65;;
22851;SDS011;11592;45.460;9.240;2023-04-24T13:32:09;2.05;;;1.02;;
22851;SDS011;11592;45.460;9.240;2023-04-24T13:34:36;1.48;;;1.00;;
22851;SDS011;11592;45.460;9.240;2023-04-24T13:37:03;1.80;;;0.82;;
22851;SDS011;11592;45.460;9.240;2023-04-24T13:39:31;1.35;;;0.80;;
22851;SDS011;11592;45.460;9.240;2023-04-24T13:41:58;0.68;;;0.60;;
22851;SDS011;11592;45.460;9.240;2023-04-24T13:44:25;0.50;;;0.50;;
22851;SDS011;11592;45.460;9.240;2023-04-24T13:46:53;1.83;;;0.90;;
22851;SDS011;11592;45.460;9.240;2023-04-24T13:49:23;0.40;;;0.40;;
22851;SDS011;11592;45.460;9.240;2023-04-24T13:51:53;0.63;;;0.30;;
22851;SDS011;11592;45.460;9.240;2023-04-24T13:54:21;0.70;;;0.50;;
22851;SDS011;11592;45.460;9.240;2023-04-24T13:56:49;0.30;;;0.30;;
22851;SDS011;11592;45.460;9.240;2023-04-24T13:59:16;0.77;;;0.32;;
22851;SDS011;11592;45.460;9.240;2023-04-24T14:01:43;0.50;;;0.50;;
22851;SDS011;11592;45.460;9.240;2023-04-24T14:04:11;6.95;;;0.57;;
22851;SDS011;11592;45.460;9.240;2023-04-24T14:06:38;0.38;;;0.30;;
22851;SDS011;11592;45.460;9.240;2023-04-24T14:09:05;0.77;;;0.50;;
22851;SDS011;11592;45.460;9.240;2023-04-24T14:11:33;0.28;;;0.28;;
22851;SDS011;11592;45.460;9.240;2023-04-24T14:14:00;0.38;;;0.32;;
22851;SDS011;11592;45.460;9.240;2023-04-24T14:16:27;0.20;;;0.20;;
22851;SDS011;11592;45.460;9.240;2023-04-24T14:18:54;0.30;;;0.30;;
22851;SDS011;11592;45.460;9.240;2023-04-24T14:21:22;0.82;;;0.35;;
22851;SDS011;11592;45.460;9.240;2023-04-24T14:23:49;0.40;;;0.30;;
22851;SDS011;11592;45.460;9.240;2023-04-24T14:26:16;0.38;;;0.30;;
22851;SDS011;11592;45.460;9.240;2023-04-24T14:28:43;1.77;;;0.30;;
22851;SDS011;11592;45.460;9.240;2023-04-24T14:31:09;1.10;;;0.60;;
22851;SDS011;11592;45.460;9.240;2023-04-24T14:33:36;1.35;;;0.50;;
22851;SDS011;11592;45.460;9.240;2023-04-24T14:36:03;2.50;;;1.10;;
22851;SDS011;11592;45.460;9.240;2023-04-24T14:38:31;2.67;;;1.65;;
22851;SDS011;11592;45.460;9.240;2023-04-24T14:40:58;3.22;;;2.17;;
22851;SDS011;11592;45.460;9.240;2023-04-24T14:43:28;5.03;;;3.08;;
22851;SDS011;11592;45.460;9.240;2023-04-24T14:45:55;1.35;;;0.50;;
22851;SDS011;11592;45.460;9.240;2023-04-24T14:48:21;1.13;;;0.88;;
22851;SDS011;11592;45.460;9.240;2023-04-24T14:50:48;2.28;;;1.55;;
22851;SDS011;11592;45.460;9.240;2023-04-24T14:53:15;1.20;;;0.65;;
22851;SDS011;11592;45.460;9.240;2023-04-24T14:55:42;1.85;;;0.93;;
22851;SDS011;11592;45.460;9.240;2023-04-24T14:58:09;2.13;;;0.50;;